Time;durP1;ratioP1;P1;durP2;ratioP2;P2;SDS_P1;SDS_P2;PMS_P1;PMS_P2;Temp;Humidity;BMP_temperature;BMP_pressure;BME280_temperature;BME280_humidity;BME280_pressure;Samples;Min_cycle;Max_cycle;Signal;HPM_P1;HPM_P2
2022/04/12 00:01:51;;;;;;;11.27;8.00;;;;;;;;;;4956518;28;92521;-65
2022/04/12 00:04:18;;;;;;;12.63;8.02;;;;;;;;;;4956883;28;93177;-65
2022/04/12 00:06:47;;;;;;;8.57;7.63;;;;;;;;;;4955494;28;93502;-65
2022/04/12 00:09:13;;;;;;;18.17;8.85;;;;;;;;;;4960328;28;92558;-65
2022/04/12 00:11:42;;;;;;;15.18;9.13;;;;;;;;;;4956001;28;93467;-65
2022/04/12 00:14:08;;;;;;;16.23;8.15;;;;;;;;;;4956825;28;92537;-65
2022/04/12 00:16:34;;;;;;;15.70;8.60;;;;;;;;;;4954775;28;95163;-65
2022/04/12 00:19:07;;;;;;;15.10;8.73;;;;;;;;;;4956314;28;94637;-65
2022/04/12 00:21:34;;;;;;;11.65;8.52;;;;;;;;;;4956445;28;92533;-66
2022/04/12 00:24:05;;;;;;;12.00;8.35;;;;;;;;;;4956880;28;93189;-65
2022/04/12 00:26:32;;;;;;;12.95;8.73;;;;;;;;;;4949709;28;93876;-65
2022/04/12 00:28:58;;;;;;;18.85;8.05;;;;;;;;;;4955712;28;92499;-65
2022/04/12 00:31:25;;;;;;;11.32;7.75;;;;;;;;;;4958718;28;94168;-67
2022/04/12 00:33:51;;;;;;;11.80;8.35;;;;;;;;;;4956484;28;91773;-65
2022/04/12 00:36:17;;;;;;;19.88;8.27;;;;;;;;;;4956182;28;92405;-66
2022/04/12 00:38:44;;;;;;;11.70;8.05;;;;;;;;;;4955880;28;92993;-65
2022/04/12 00:41:11;;;;;;;17.02;7.63;;;;;;;;;;4954521;28;95232;-65
2022/04/12 00:43:38;;;;;;;10.25;7.30;;;;;;;;;;4955833;28;95536;-65
2022/04/12 00:46:04;;;;;;;11.88;7.05;;;;;;;;;;4955355;28;93438;-65
2022/04/12 00:48:32;;;;;;;10.32;6.80;;;;;;;;;;4955064;28;92494;-65
2022/04/12 00:50:58;;;;;;;13.93;7.00;;;;;;;;;;4955913;28;93458;-65
2022/04/12 00:53:25;;;;;;;10.55;6.75;;;;;;;;;;4959080;28;93818;-66
2022/04/12 00:55:52;;;;;;;11.30;7.93;;;;;;;;;;4955242;28;93147;-65
2022/04/12 00:58:18;;;;;;;10.20;7.05;;;;;;;;;;4956387;28;93677;-66
2022/04/12 01:00:45;;;;;;;12.00;7.88;;;;;;;;;;4955750;28;92523;-65
2022/04/12 01:03:11;;;;;;;11.15;7.38;;;;;;;;;;4955511;28;93153;-66
2022/04/12 01:05:38;;;;;;;12.75;8.02;;;;;;;;;;4953510;28;97061;-66
2022/04/12 01:08:04;;;;;;;9.05;6.90;;;;;;;;;;4955141;28;92477;-65
2022/04/12 01:10:34;;;;;;;11.13;7.00;;;;;;;;;;4955903;28;94029;-65
2022/04/12 01:13:00;;;;;;;11.05;7.75;;;;;;;;;;4953959;28;94488;-65
2022/04/12 01:15:28;;;;;;;15.07;6.93;;;;;;;;;;4956665;28;92530;-65
2022/04/12 01:17:54;;;;;;;13.20;7.47;;;;;;;;;;4955782;28;93448;-65
2022/04/12 01:20:24;;;;;;;11.93;7.45;;;;;;;;;;4955808;28;92799;-65
2022/04/12 01:22:54;;;;;;;11.32;7.43;;;;;;;;;;4956328;28;93193;-66
2022/04/12 01:25:20;;;;;;;14.10;7.38;;;;;;;;;;4955229;28;93015;-65
2022/04/12 01:27:46;;;;;;;13.15;7.45;;;;;;;;;;4968381;28;92549;-66
2022/04/12 01:30:13;;;;;;;13.90;7.22;;;;;;;;;;4956854;28;94954;-65
2022/04/12 01:32:39;;;;;;;12.07;7.97;;;;;;;;;;4955244;28;93471;-65
2022/04/12 01:35:06;;;;;;;9.70;7.75;;;;;;;;;;4958119;28;92409;-65
2022/04/12 01:37:32;;;;;;;12.77;7.95;;;;;;;;;;4955382;28;93294;-65
2022/04/12 01:39:59;;;;;;;9.50;7.18;;;;;;;;;;4954928;28;92413;-65
2022/04/12 01:42:25;;;;;;;11.75;7.45;;;;;;;;;;4942110;28;93152;-65
2022/04/12 01:44:51;;;;;;;9.70;7.57;;;;;;;;;;4955016;28;93267;-65
2022/04/12 01:47:17;;;;;;;11.80;6.95;;;;;;;;;;4956298;28;92098;-65
2022/04/12 01:49:44;;;;;;;12.88;7.53;;;;;;;;;;4954918;28;92525;-66
2022/04/12 01:52:10;;;;;;;10.77;7.25;;;;;;;;;;4955333;28;92837;-65
2022/04/12 01:54:37;;;;;;;11.93;7.03;;;;;;;;;;4953312;28;95349;-66
2022/04/12 01:57:03;;;;;;;14.52;7.32;;;;;;;;;;4956866;28;95547;-65
2022/04/12 01:59:29;;;;;;;15.85;7.32;;;;;;;;;;4954859;28;92511;-65
2022/04/12 02:01:56;;;;;;;8.60;7.53;;;;;;;;;;4955160;28;94061;-65
2022/04/12 02:04:22;;;;;;;9.20;7.13;;;;;;;;;;4954408;28;93210;-65
2022/04/12 02:06:48;;;;;;;10.88;7.40;;;;;;;;;;4954697;28;92382;-65
2022/04/12 02:09:15;;;;;;;14.13;8.10;;;;;;;;;;4954851;28;93677;-66
2022/04/12 02:11:41;;;;;;;10.85;7.65;;;;;;;;;;4955362;28;92928;-66
2022/04/12 02:14:08;;;;;;;12.15;7.70;;;;;;;;;;4954671;28;92419;-65
2022/04/12 02:16:34;;;;;;;14.23;8.20;;;;;;;;;;4954897;28;93899;-66
2022/04/12 02:19:01;;;;;;;12.60;7.45;;;;;;;;;;4956410;28;96804;-65
2022/04/12 02:21:27;;;;;;;13.15;7.15;;;;;;;;;;4954686;28;96598;-65
2022/04/12 02:23:53;;;;;;;13.52;6.80;;;;;;;;;;4953844;28;92757;-65
2022/04/12 02:26:19;;;;;;;12.32;7.18;;;;;;;;;;4953631;28;92765;-65
2022/04/12 02:28:46;;;;;;;9.18;7.07;;;;;;;;;;4955253;28;94175;-65
2022/04/12 02:31:12;;;;;;;9.45;7.10;;;;;;;;;;4954041;28;93495;-66
2022/04/12 02:33:39;;;;;;;10.75;6.68;;;;;;;;;;4954410;28;92846;-66
2022/04/12 02:36:05;;;;;;;10.02;7.15;;;;;;;;;;4954806;28;92985;-65
2022/04/12 02:38:31;;;;;;;10.95;7.18;;;;;;;;;;4954470;28;92483;-65
2022/04/12 02:40:57;;;;;;;10.65;7.25;;;;;;;;;;4956976;28;93990;-65
2022/04/12 02:43:24;;;;;;;10.80;7.40;;;;;;;;;;4952438;28;95825;-66
2022/04/12 02:45:51;;;;;;;10.10;7.55;;;;;;;;;;4954448;28;92508;-65
2022/04/12 02:48:17;;;;;;;11.18;8.25;;;;;;;;;;4953901;28;93361;-66
2022/04/12 02:50:44;;;;;;;8.85;7.95;;;;;;;;;;4953682;28;93178;-66
2022/04/12 02:53:10;;;;;;;14.30;8.38;;;;;;;;;;4954117;28;92568;-65
2022/04/12 02:55:36;;;;;;;15.90;8.07;;;;;;;;;;4953854;28;92999;-65
2022/04/12 02:58:03;;;;;;;14.02;7.88;;;;;;;;;;4954173;28;93093;-65
2022/04/12 03:00:29;;;;;;;10.20;7.47;;;;;;;;;;4953570;28;91814;-65
2022/04/12 03:02:55;;;;;;;17.27;7.38;;;;;;;;;;4957243;28;93449;-67
2022/04/12 03:05:22;;;;;;;12.23;7.20;;;;;;;;;;4954165;28;92833;-65
2022/04/12 03:07:48;;;;;;;9.52;7.55;;;;;;;;;;4951913;28;94889;-65
2022/04/12 03:10:14;;;;;;;12.68;7.07;;;;;;;;;;4954052;28;93438;-65
2022/04/12 03:12:41;;;;;;;10.57;7.65;;;;;;;;;;4953863;28;92986;-65
2022/04/12 03:15:08;;;;;;;9.32;6.65;;;;;;;;;;4954397;28;94250;-66
2022/04/12 03:17:34;;;;;;;14.65;7.68;;;;;;;;;;4948246;28;93227;-65
2022/04/12 03:20:01;;;;;;;12.68;7.57;;;;;;;;;;4953781;28;92600;-66
2022/04/12 03:22:27;;;;;;;11.48;7.63;;;;;;;;;;4953635;28;93284;-66
2022/04/12 03:24:55;;;;;;;11.63;8.30;;;;;;;;;;4956980;28;92600;-66
2022/04/12 03:27:21;;;;;;;18.65;8.23;;;;;;;;;;4954549;28;92444;-66
2022/04/12 03:29:47;;;;;;;10.23;7.45;;;;;;;;;;4953703;28;93277;-66
2022/04/12 03:32:13;;;;;;;16.17;7.85;;;;;;;;;;4952245;28;94982;-65
2022/04/12 03:34:40;;;;;;;15.27;8.05;;;;;;;;;;4954531;28;96680;-65
2022/04/12 03:37:07;;;;;;;12.10;7.72;;;;;;;;;;4957949;28;93439;-65
2022/04/12 03:39:33;;;;;;;11.27;7.38;;;;;;;;;;4957397;28;92401;-65
2022/04/12 03:41:59;;;;;;;11.90;7.85;;;;;;;;;;4957320;28;92386;-65
2022/04/12 03:44:25;;;;;;;12.23;7.57;;;;;;;;;;4959951;28;94431;-65
2022/04/12 03:46:52;;;;;;;11.88;7.47;;;;;;;;;;4957797;28;92945;-66
2022/04/12 03:49:18;;;;;;;11.23;7.70;;;;;;;;;;4957231;28;93378;-65
2022/04/12 03:51:44;;;;;;;14.43;7.78;;;;;;;;;;4956454;28;92611;-65
2022/04/12 03:54:11;;;;;;;11.57;7.63;;;;;;;;;;4957672;28;94360;-66
2022/04/12 03:56:37;;;;;;;10.70;7.45;;;;;;;;;;4954972;28;95863;-66
2022/04/12 03:59:03;;;;;;;12.45;7.40;;;;;;;;;;4956547;28;92424;-65
2022/04/12 04:01:29;;;;;;;12.10;6.75;;;;;;;;;;4956333;28;96937;-65
2022/04/12 04:03:56;;;;;;;12.98;7.45;;;;;;;;;;4956632;28;93662;-65
2022/04/12 04:06:22;;;;;;;9.88;8.07;;;;;;;;;;4959806;28;92414;-66
2022/04/12 04:08:49;;;;;;;11.50;7.53;;;;;;;;;;4956498;28;93284;-66
2022/04/12 04:11:16;;;;;;;13.50;7.82;;;;;;;;;;4956756;28;92474;-65
2022/04/12 04:13:42;;;;;;;16.45;7.13;;;;;;;;;;4957357;28;94018;-65
2022/04/12 04:16:09;;;;;;;12.60;7.88;;;;;;;;;;4956135;28;93068;-65
2022/04/12 04:18:35;;;;;;;11.23;7.78;;;;;;;;;;4957052;28;92444;-65
2022/04/12 04:21:02;;;;;;;8.80;7.38;;;;;;;;;;4954633;28;94905;-65
2022/04/12 04:23:28;;;;;;;11.02;7.85;;;;;;;;;;4943355;28;93167;-65
2022/04/12 04:25:55;;;;;;;11.32;8.02;;;;;;;;;;4956817;28;92725;-66
2022/04/12 04:28:21;;;;;;;10.73;7.53;;;;;;;;;;4960117;28;93360;-65
2022/04/12 04:30:49;;;;;;;13.88;7.93;;;;;;;;;;4954635;28;92520;-65
2022/04/12 04:33:17;;;;;;;17.17;8.90;;;;;;;;;;4955384;28;93705;-66
2022/04/12 04:35:46;;;;;;;22.52;8.02;;;;;;;;;;4956218;28;93136;-66
2022/04/12 04:38:13;;;;;;;17.38;8.43;;;;;;;;;;4957602;28;91853;-66
2022/04/12 04:40:39;;;;;;;13.52;8.77;;;;;;;;;;4955787;28;92490;-65
2022/04/12 04:43:06;;;;;;;12.35;8.38;;;;;;;;;;4956637;28;93974;-66
2022/04/12 04:45:32;;;;;;;12.15;7.50;;;;;;;;;;4954399;28;94869;-66
2022/04/12 04:47:59;;;;;;;12.73;8.60;;;;;;;;;;4955422;28;95637;-65
2022/04/12 04:50:27;;;;;;;11.32;8.20;;;;;;;;;;4958767;28;92481;-66
2022/04/12 04:52:53;;;;;;;31.52;9.07;;;;;;;;;;4955930;28;92952;-65
2022/04/12 04:55:20;;;;;;;15.52;9.15;;;;;;;;;;4953384;28;94672;-65
2022/04/12 04:57:46;;;;;;;12.95;8.43;;;;;;;;;;4956818;28;92531;-66
2022/04/12 05:00:17;;;;;;;15.20;8.43;;;;;;;;;;4955487;28;94149;-65
2022/04/12 05:02:44;;;;;;;28.35;8.73;;;;;;;;;;4956254;28;93244;-65
2022/04/12 05:05:10;;;;;;;21.60;8.20;;;;;;;;;;4955312;28;92504;-66
2022/04/12 05:07:40;;;;;;;22.38;8.57;;;;;;;;;;4955806;28;93135;-66
2022/04/12 05:10:07;;;;;;;25.97;7.90;;;;;;;;;;4953946;28;95815;-65
2022/04/12 05:12:34;;;;;;;15.70;7.72;;;;;;;;;;4958995;28;92469;-66
2022/04/12 05:15:00;;;;;;;15.85;8.40;;;;;;;;;;4955308;28;93075;-66
2022/04/12 05:17:27;;;;;;;20.77;8.70;;;;;;;;;;4954836;28;92540;-66
2022/04/12 05:19:53;;;;;;;19.77;8.43;;;;;;;;;;4955095;28;92370;-66
2022/04/12 05:22:19;;;;;;;17.13;8.50;;;;;;;;;;4955015;28;93201;-66
2022/04/12 05:24:46;;;;;;;19.25;8.55;;;;;;;;;;4955739;28;92478;-66
2022/04/12 05:27:12;;;;;;;19.05;8.48;;;;;;;;;;4956435;28;94284;-66
2022/04/12 05:29:38;;;;;;;17.92;7.85;;;;;;;;;;4955496;28;94266;-65
2022/04/12 05:32:05;;;;;;;21.25;8.48;;;;;;;;;;4954961;28;92471;-65
2022/04/12 05:34:31;;;;;;;13.68;8.02;;;;;;;;;;4956407;28;94802;-66
2022/04/12 05:36:58;;;;;;;22.90;8.38;;;;;;;;;;4954925;28;92802;-66
2022/04/12 05:39:24;;;;;;;22.35;8.65;;;;;;;;;;4954462;28;93171;-66
2022/04/12 05:41:50;;;;;;;12.65;7.90;;;;;;;;;;4954582;28;93516;-66
2022/04/12 05:44:16;;;;;;;11.40;7.85;;;;;;;;;;4955268;28;94081;-66
2022/04/12 05:46:43;;;;;;;15.38;9.15;;;;;;;;;;4955404;28;93196;-66
2022/04/12 05:49:09;;;;;;;21.08;9.15;;;;;;;;;;4954845;28;93415;-66
2022/04/12 05:51:35;;;;;;;13.30;8.32;;;;;;;;;;4955063;28;91756;-66
2022/04/12 05:54:02;;;;;;;11.80;8.20;;;;;;;;;;4957992;28;93557;-65
2022/04/12 05:56:28;;;;;;;17.98;8.77;;;;;;;;;;4951390;28;93195;-66
2022/04/12 05:58:54;;;;;;;15.77;8.57;;;;;;;;;;4967395;28;96972;-66
2022/04/12 06:01:20;;;;;;;14.45;8.07;;;;;;;;;;4954744;28;93235;-66
2022/04/12 06:03:47;;;;;;;31.65;9.32;;;;;;;;;;4954905;28;93235;-66
2022/04/12 06:06:14;;;;;;;19.63;8.95;;;;;;;;;;4954812;28;93173;-65
2022/04/12 06:08:41;;;;;;;18.88;9.02;;;;;;;;;;4954462;28;92641;-65
2022/04/12 06:11:07;;;;;;;21.52;9.45;;;;;;;;;;4950858;28;92863;-65
2022/04/12 06:13:34;;;;;;;31.10;8.93;;;;;;;;;;4954587;28;93166;-64
2022/04/12 06:16:00;;;;;;;22.38;8.52;;;;;;;;;;4958288;28;92707;-65
2022/04/12 06:18:26;;;;;;;11.48;7.70;;;;;;;;;;4955192;28;92368;-65
2022/04/12 06:20:53;;;;;;;16.25;8.00;;;;;;;;;;4954689;28;93453;-67
2022/04/12 06:23:19;;;;;;;10.68;7.70;;;;;;;;;;4951786;28;94919;-64
2022/04/12 06:25:45;;;;;;;16.25;7.35;;;;;;;;;;4955056;28;95412;-64
2022/04/12 06:28:12;;;;;;;13.95;7.90;;;;;;;;;;4954817;28;93325;-65
2022/04/12 06:30:38;;;;;;;16.02;8.07;;;;;;;;;;4955268;28;92532;-64
2022/04/12 06:33:04;;;;;;;12.30;7.78;;;;;;;;;;4953342;28;93110;-66
2022/04/12 06:35:31;;;;;;;13.07;8.05;;;;;;;;;;4954396;28;93587;-64
2022/04/12 06:37:57;;;;;;;11.85;7.63;;;;;;;;;;4958250;28;92404;-64
2022/04/12 06:40:24;;;;;;;17.77;9.45;;;;;;;;;;4954767;28;92409;-65
2022/04/12 06:42:51;;;;;;;15.65;8.77;;;;;;;;;;4954882;28;92448;-64
2022/04/12 06:45:17;;;;;;;18.85;8.63;;;;;;;;;;4954674;28;92785;-64
2022/04/12 06:47:43;;;;;;;17.63;8.25;;;;;;;;;;4953235;28;96717;-64
2022/04/12 06:50:11;;;;;;;17.30;8.52;;;;;;;;;;4954836;28;92548;-64
2022/04/12 06:52:37;;;;;;;15.68;8.05;;;;;;;;;;4954581;28;92815;-64
2022/04/12 06:55:04;;;;;;;11.75;7.53;;;;;;;;;;4954327;28;94468;-65
2022/04/12 06:57:31;;;;;;;20.05;7.65;;;;;;;;;;4954293;28;92463;-64
2022/04/12 06:59:58;;;;;;;13.88;7.70;;;;;;;;;;4957940;28;94163;-64
2022/04/12 07:02:24;;;;;;;15.07;8.05;;;;;;;;;;4954051;28;92427;-64
2022/04/12 07:04:50;;;;;;;9.15;6.55;;;;;;;;;;4955227;28;93342;-64
2022/04/12 07:07:17;;;;;;;13.93;7.97;;;;;;;;;;4953352;28;93570;-66
2022/04/12 07:09:43;;;;;;;9.98;6.35;;;;;;;;;;4957233;28;92452;-66
2022/04/12 07:12:09;;;;;;;14.43;7.10;;;;;;;;;;4956205;28;94940;-65
2022/04/12 07:14:36;;;;;;;9.18;6.70;;;;;;;;;;4957498;28;93327;-65
2022/04/12 07:17:03;;;;;;;10.00;6.20;;;;;;;;;;4957772;28;92552;-65
2022/04/12 07:19:29;;;;;;;13.43;7.25;;;;;;;;;;4955942;28;93203;-65
2022/04/12 07:21:56;;;;;;;13.75;7.13;;;;;;;;;;4953319;28;93349;-65
2022/04/12 07:24:22;;;;;;;18.77;7.43;;;;;;;;;;4957676;28;93198;-64
2022/04/12 07:26:48;;;;;;;11.55;7.20;;;;;;;;;;4957627;28;93026;-65
2022/04/12 07:29:15;;;;;;;19.48;7.30;;;;;;;;;;4957661;28;91743;-64
2022/04/12 07:31:41;;;;;;;17.50;7.30;;;;;;;;;;4956396;28;93473;-65
2022/04/12 07:34:09;;;;;;;9.90;6.68;;;;;;;;;;4957804;28;93941;-65
2022/04/12 07:36:39;;;;;;;9.95;6.72;;;;;;;;;;4956081;28;94990;-65
2022/04/12 07:39:11;;;;;;;18.25;7.47;;;;;;;;;;4957615;28;95538;-65
2022/04/12 07:41:39;;;;;;;12.30;6.63;;;;;;;;;;4956957;28;93247;-65
2022/04/12 07:44:05;;;;;;;12.85;6.60;;;;;;;;;;4960303;28;92496;-65
2022/04/12 07:46:31;;;;;;;11.40;6.43;;;;;;;;;;4957994;28;94414;-65
2022/04/12 07:48:58;;;;;;;18.42;7.38;;;;;;;;;;4956923;28;92539;-65
2022/04/12 07:51:24;;;;;;;12.85;6.50;;;;;;;;;;4957304;28;93046;-65
2022/04/12 07:53:50;;;;;;;14.80;7.45;;;;;;;;;;4956961;28;92059;-64
2022/04/12 07:56:17;;;;;;;10.98;6.63;;;;;;;;;;4941464;28;92795;-65
2022/04/12 07:58:43;;;;;;;9.65;6.28;;;;;;;;;;4972031;28;93621;-64
2022/04/12 08:01:10;;;;;;;15.75;6.95;;;;;;;;;;4955073;28;95997;-65
2022/04/12 08:03:36;;;;;;;10.55;6.32;;;;;;;;;;4959020;28;92481;-63
2022/04/12 08:06:03;;;;;;;15.38;7.07;;;;;;;;;;4956670;28;93495;-64
2022/04/12 08:08:29;;;;;;;12.57;6.70;;;;;;;;;;4956857;28;92370;-65
2022/04/12 08:10:55;;;;;;;8.90;6.10;;;;;;;;;;4956086;28;94085;-65
2022/04/12 08:13:22;;;;;;;17.55;6.60;;;;;;;;;;4956493;28;94616;-65
2022/04/12 08:15:48;;;;;;;16.77;6.50;;;;;;;;;;4956880;28;92491;-64
2022/04/12 08:18:14;;;;;;;16.30;6.78;;;;;;;;;;4956735;28;93191;-65
2022/04/12 08:20:41;;;;;;;13.52;6.38;;;;;;;;;;4954337;28;93266;-65
2022/04/12 08:23:07;;;;;;;11.30;6.43;;;;;;;;;;4956723;28;92538;-64
2022/04/12 08:25:33;;;;;;;13.00;5.97;;;;;;;;;;4958093;28;94755;-65
2022/04/12 08:28:00;;;;;;;13.48;6.35;;;;;;;;;;4956306;28;92611;-64
2022/04/12 08:30:26;;;;;;;10.55;5.43;;;;;;;;;;4952200;28;93171;-61
2022/04/12 08:32:53;;;;;;;13.75;5.93;;;;;;;;;;4955466;28;94397;-62
2022/04/12 08:35:19;;;;;;;7.88;6.10;;;;;;;;;;4960170;28;94374;-62
2022/04/12 08:37:45;;;;;;;13.45;6.95;;;;;;;;;;4956122;28;93085;-62
2022/04/12 08:40:12;;;;;;;11.38;6.22;;;;;;;;;;4956671;28;93246;-62
2022/04/12 08:42:40;;;;;;;10.55;6.53;;;;;;;;;;4957146;28;91712;-62
2022/04/12 08:45:06;;;;;;;13.88;6.60;;;;;;;;;;4967318;28;94058;-64
2022/04/12 08:47:34;;;;;;;11.52;6.82;;;;;;;;;;4957608;28;93475;-65
2022/04/12 08:50:01;;;;;;;11.75;5.85;;;;;;;;;;4955310;28;94833;-65
2022/04/12 08:52:28;;;;;;;19.50;6.13;;;;;;;;;;4966965;28;93472;-65
2022/04/12 08:54:54;;;;;;;11.82;6.40;;;;;;;;;;4967974;28;92555;-65
2022/04/12 08:57:21;;;;;;;12.32;6.40;;;;;;;;;;4956178;28;93087;-66
2022/04/12 08:59:48;;;;;;;11.55;6.63;;;;;;;;;;4956119;28;94428;-64
2022/04/12 09:02:14;;;;;;;11.70;6.03;;;;;;;;;;4955179;28;92769;-64
2022/04/12 09:04:40;;;;;;;12.63;6.47;;;;;;;;;;4956370;28;94435;-64
2022/04/12 09:07:07;;;;;;;14.32;6.80;;;;;;;;;;4955949;28;92498;-63
2022/04/12 09:09:34;;;;;;;15.45;6.82;;;;;;;;;;4959263;28;92629;-66
2022/04/12 09:12:04;;;;;;;11.85;6.45;;;;;;;;;;4956040;28;93238;-62
2022/04/12 09:14:39;;;;;;;11.57;6.82;;;;;;;;;;4954023;28;95222;-64
2022/04/12 09:17:06;;;;;;;11.93;6.60;;;;;;;;;;4956034;28;95402;-64
2022/04/12 09:19:44;;;;;;;21.13;6.55;;;;;;;;;;4955952;28;94413;-64
2022/04/12 09:22:11;;;;;;;12.00;6.40;;;;;;;;;;4956324;28;92551;-64
2022/04/12 09:24:42;;;;;;;13.50;6.75;;;;;;;;;;4955788;28;92834;-64
2022/04/12 09:27:13;;;;;;;10.77;6.30;;;;;;;;;;4956163;28;94461;-65
2022/04/12 09:29:43;;;;;;;11.00;6.07;;;;;;;;;;4955926;28;92571;-64
2022/04/12 09:32:13;;;;;;;8.80;5.82;;;;;;;;;;4958817;28;93718;-64
2022/04/12 09:34:40;;;;;;;9.05;6.85;;;;;;;;;;4955770;28;92431;-64
2022/04/12 09:37:24;;;;;;;13.23;6.05;;;;;;;;;;4956505;28;93040;-64
2022/04/12 09:40:00;;;;;;;15.25;6.22;;;;;;;;;;4953503;28;95849;-64
2022/04/12 09:42:38;;;;;;;14.55;6.40;;;;;;;;;;4955896;28;92513;-64
2022/04/12 09:45:05;;;;;;;14.77;6.45;;;;;;;;;;4955146;28;93351;-64
2022/04/12 09:47:32;;;;;;;12.35;6.35;;;;;;;;;;4955415;28;93245;-64
2022/04/12 09:50:19;;;;;;;9.48;5.57;;;;;;;;;;4954501;28;92366;-64
2022/04/12 09:52:55;;;;;;;8.77;5.93;;;;;;;;;;4958115;28;93025;-64
2022/04/12 09:55:31;;;;;;;9.25;5.35;;;;;;;;;;4955247;28;92898;-64
2022/04/12 09:58:09;;;;;;;8.93;6.90;;;;;;;;;;4955839;28;93158;-63
2022/04/12 10:00:36;;;;;;;15.90;5.88;;;;;;;;;;4954916;28;93425;-64
2022/04/12 10:03:03;;;;;;;9.70;5.65;;;;;;;;;;4954582;28;92484;-64
2022/04/12 10:05:29;;;;;;;10.32;5.40;;;;;;;;;;4953492;28;94796;-64
2022/04/12 10:07:58;;;;;;;12.30;5.70;;;;;;;;;;4955166;28;93264;-64
2022/04/12 10:10:25;;;;;;;12.65;5.25;;;;;;;;;;4955005;28;92733;-64
2022/04/12 10:12:54;;;;;;;6.28;4.03;;;;;;;;;;4954355;28;93121;-64
2022/04/12 10:15:21;;;;;;;18.65;4.63;;;;;;;;;;4956499;28;93747;-64
2022/04/12 10:17:48;;;;;;;12.23;4.43;;;;;;;;;;4955680;28;94332;-64
2022/04/12 10:20:15;;;;;;;9.88;4.78;;;;;;;;;;4953651;28;92709;-64
2022/04/12 10:22:42;;;;;;;14.38;4.03;;;;;;;;;;4955659;28;93205;-65
2022/04/12 10:25:09;;;;;;;8.85;3.90;;;;;;;;;;4955564;28;92452;-64
2022/04/12 10:27:36;;;;;;;8.30;4.72;;;;;;;;;;4959578;28;96196;-63
2022/04/12 10:30:17;;;;;;;14.18;5.93;;;;;;;;;;4953214;28;94905;-64
2022/04/12 10:33:04;;;;;;;10.73;5.60;;;;;;;;;;4954233;28;96316;-64
2022/04/12 10:35:43;;;;;;;16.02;5.85;;;;;;;;;;4957766;28;93941;-64
2022/04/12 10:38:10;;;;;;;8.10;5.50;;;;;;;;;;4958116;28;92457;-64
2022/04/12 10:40:45;;;;;;;10.13;5.50;;;;;;;;;;4954903;28;93077;-65
2022/04/12 10:43:12;;;;;;;12.75;6.20;;;;;;;;;;4954200;28;92482;-64
2022/04/12 10:45:46;;;;;;;23.88;8.07;;;;;;;;;;4955159;28;93198;-66
2022/04/12 10:48:22;;;;;;;9.98;5.68;;;;;;;;;;4955295;28;92567;-65
2022/04/12 10:50:49;;;;;;;10.88;5.45;;;;;;;;;;4954502;28;92677;-65
2022/04/12 10:53:15;;;;;;;18.88;6.00;;;;;;;;;;4954929;28;93204;-64
2022/04/12 10:55:42;;;;;;;12.68;5.85;;;;;;;;;;4952872;28;95919;-64
2022/04/12 10:58:11;;;;;;;8.85;5.00;;;;;;;;;;4952661;28;92809;-65
2022/04/12 11:00:39;;;;;;;11.77;5.72;;;;;;;;;;4956019;28;93649;-64
2022/04/12 11:03:06;;;;;;;7.55;4.82;;;;;;;;;;4954373;28;92472;-65
2022/04/12 11:05:32;;;;;;;8.65;4.70;;;;;;;;;;4953991;28;93170;-64
2022/04/12 11:07:59;;;;;;;11.90;5.03;;;;;;;;;;4953211;28;93649;-65
2022/04/12 11:10:26;;;;;;;10.68;4.80;;;;;;;;;;4954217;28;92899;-63
2022/04/12 11:13:05;;;;;;;10.65;5.00;;;;;;;;;;4955052;28;92938;-68
2022/04/12 11:15:33;;;;;;;11.52;5.15;;;;;;;;;;4953957;28;94585;-64
2022/04/12 11:18:09;;;;;;;10.98;4.93;;;;;;;;;;4954883;28;92675;-63
2022/04/12 11:20:36;;;;;;;12.30;5.13;;;;;;;;;;4953266;28;94788;-64
2022/04/12 11:23:08;;;;;;;13.05;4.63;;;;;;;;;;4957169;28;93431;-63
2022/04/12 11:25:36;;;;;;;8.60;4.72;;;;;;;;;;4953715;28;93245;-63
2022/04/12 11:28:03;;;;;;;8.95;3.53;;;;;;;;;;4954535;28;93543;-63
2022/04/12 11:30:29;;;;;;;5.07;3.10;;;;;;;;;;4955141;28;92767;-65
2022/04/12 11:32:56;;;;;;;9.15;3.40;;;;;;;;;;4953706;28;93084;-64
2022/04/12 11:35:22;;;;;;;9.63;3.65;;;;;;;;;;4954174;28;94511;-64
2022/04/12 11:37:49;;;;;;;7.55;3.20;;;;;;;;;;4954686;28;91767;-65
2022/04/12 11:40:15;;;;;;;6.60;3.63;;;;;;;;;;4953674;28;92475;-65
2022/04/12 11:42:43;;;;;;;13.93;5.25;;;;;;;;;;4953505;28;93425;-64
2022/04/12 11:45:11;;;;;;;9.32;5.10;;;;;;;;;;4955834;28;94949;-65
2022/04/12 11:47:44;;;;;;;6.57;4.55;;;;;;;;;;4954340;28;94295;-65
2022/04/12 11:50:14;;;;;;;10.73;4.60;;;;;;;;;;4953818;28;92582;-64
2022/04/12 11:52:40;;;;;;;;;;;;;;;;;;4954151;28;94170;-65
2022/04/12 11:55:06;;;;;;;8.55;4.18;;;;;;;;;;4954541;28;123413;-64
2022/04/12 11:57:38;;;;;;;12.27;4.03;;;;;;;;;;4957294;28;92501;-64
2022/04/12 12:00:04;;;;;;;7.80;4.13;;;;;;;;;;4957315;28;93169;-64
2022/04/12 12:02:32;;;;;;;10.25;4.35;;;;;;;;;;4957906;28;93525;-64
2022/04/12 12:04:59;;;;;;;9.90;4.78;;;;;;;;;;4958753;28;92574;-64
2022/04/12 12:07:26;;;;;;;10.55;4.95;;;;;;;;;;4955696;28;93345;-64
2022/04/12 12:10:00;;;;;;;9.02;5.40;;;;;;;;;;4955642;28;94890;-64
2022/04/12 12:12:33;;;;;;;11.88;5.35;;;;;;;;;;4956779;28;95433;-64
2022/04/12 12:15:11;;;;;;;13.88;5.40;;;;;;;;;;4955803;28;94382;-65
2022/04/12 12:17:38;;;;;;;7.72;5.50;;;;;;;;;;4957075;28;92507;-64
2022/04/12 12:20:07;;;;;;;13.05;6.13;;;;;;;;;;4956899;28;93193;-64
2022/04/12 12:22:37;;;;;;;13.23;5.80;;;;;;;;;;4957168;28;93560;-64
2022/04/12 12:25:03;;;;;;;11.35;5.38;;;;;;;;;;4956142;28;92653;-65
2022/04/12 12:27:31;;;;;;;12.38;4.95;;;;;;;;;;4960435;28;93133;-66
2022/04/12 12:30:05;;;;;;;16.95;4.85;;;;;;;;;;4956825;28;92446;-65
2022/04/12 12:32:32;;;;;;;13.32;4.22;;;;;;;;;;4957008;28;94225;-64
2022/04/12 12:35:06;;;;;;;9.73;4.82;;;;;;;;;;4953170;28;95835;-65
2022/04/12 12:37:33;;;;;;;12.35;5.10;;;;;;;;;;4956806;28;92603;-65
2022/04/12 12:39:59;;;;;;;6.85;4.78;;;;;;;;;;4957084;28;92817;-65
2022/04/12 12:42:34;;;;;;;10.10;5.13;;;;;;;;;;4956637;28;93239;-65
2022/04/12 12:45:16;;;;;;;12.60;5.45;;;;;;;;;;4956091;28;92556;-65
2022/04/12 12:47:49;;;;;;;9.50;4.72;;;;;;;;;;4956918;28;94060;-65
2022/04/12 12:50:16;;;;;;;10.45;5.60;;;;;;;;;;4959179;28;94014;-65
2022/04/12 12:52:43;;;;;;;8.60;4.82;;;;;;;;;;4955912;28;94489;-64
2022/04/12 12:55:22;;;;;;;10.57;5.80;;;;;;;;;;4956133;28;93377;-65
2022/04/12 12:57:50;;;;;;;11.90;5.82;;;;;;;;;;4956228;28;92387;-66
2022/04/12 13:00:17;;;;;;;15.85;6.18;;;;;;;;;;4954946;28;94933;-65
2022/04/12 13:02:44;;;;;;;15.00;6.10;;;;;;;;;;4955910;28;94414;-64
2022/04/12 13:05:12;;;;;;;17.95;6.07;;;;;;;;;;4956525;28;92437;-64
2022/04/12 13:07:40;;;;;;;16.02;6.90;;;;;;;;;;4955071;28;93050;-64
2022/04/12 13:10:11;;;;;;;14.77;6.50;;;;;;;;;;4936564;28;93293;-65
2022/04/12 13:12:38;;;;;;;11.75;6.50;;;;;;;;;;4940121;28;92441;-65
2022/04/12 13:15:05;;;;;;;11.07;6.50;;;;;;;;;;4938531;28;93238;-65
2022/04/12 13:17:32;;;;;;;9.20;6.15;;;;;;;;;;4955439;28;91687;-64
2022/04/12 13:19:58;;;;;;;15.63;6.70;;;;;;;;;;4956477;28;92452;-65
2022/04/12 13:22:25;;;;;;;14.77;6.65;;;;;;;;;;4955401;28;93581;-64
2022/04/12 13:24:52;;;;;;;26.80;6.65;;;;;;;;;;4939086;28;95726;-64
2022/04/12 13:27:18;;;;;;;11.70;5.85;;;;;;;;;;4956090;28;95431;-64
2022/04/12 13:29:45;;;;;;;17.50;7.00;;;;;;;;;;4955911;28;93487;-64
2022/04/12 13:32:11;;;;;;;14.63;6.20;;;;;;;;;;4955744;28;92470;-64
2022/04/12 13:34:38;;;;;;;15.30;6.53;;;;;;;;;;4959151;28;94063;-64
2022/04/12 13:37:04;;;;;;;15.13;6.55;;;;;;;;;;4955176;28;92442;-63
2022/04/12 13:39:31;;;;;;;17.10;6.65;;;;;;;;;;4955788;28;94243;-64
2022/04/12 13:41:57;;;;;;;17.33;6.30;;;;;;;;;;4956113;28;92491;-64
2022/04/12 13:44:24;;;;;;;10.93;6.43;;;;;;;;;;4956117;28;92479;-64
2022/04/12 13:46:57;;;;;;;21.55;6.25;;;;;;;;;;4956337;28;93119;-64
2022/04/12 13:49:23;;;;;;;14.60;6.28;;;;;;;;;;4953644;28;95856;-63
2022/04/12 13:51:49;;;;;;;17.23;6.18;;;;;;;;;;4955498;28;92453;-64
2022/04/12 13:54:15;;;;;;;18.83;6.25;;;;;;;;;;4954991;28;92991;-64
2022/04/12 13:56:42;;;;;;;16.90;6.53;;;;;;;;;;4938901;28;93895;-64
2022/04/12 13:59:08;;;;;;;17.35;7.25;;;;;;;;;;4949555;28;94231;-64
2022/04/12 14:01:34;;;;;;;13.20;7.20;;;;;;;;;;4955340;28;93462;-64
2022/04/12 14:04:01;;;;;;;16.38;7.32;;;;;;;;;;4955299;28;92444;-64
2022/04/12 14:06:28;;;;;;;15.25;6.63;;;;;;;;;;4955955;28;93228;-63
2022/04/12 14:08:54;;;;;;;20.55;6.88;;;;;;;;;;4969141;28;93240;-63
2022/04/12 14:11:20;;;;;;;13.20;6.70;;;;;;;;;;4955268;28;92446;-64
2022/04/12 14:13:47;;;;;;;14.95;7.38;;;;;;;;;;4953927;28;95124;-64
2022/04/12 14:16:15;;;;;;;19.13;7.35;;;;;;;;;;4958527;28;93477;-64
2022/04/12 14:18:41;;;;;;;12.20;6.70;;;;;;;;;;4954465;28;93230;-64
2022/04/12 14:21:09;;;;;;;16.50;7.25;;;;;;;;;;4955357;28;93250;-63
2022/04/12 14:23:42;;;;;;;18.48;7.00;;;;;;;;;;4954797;28;92480;-63
2022/04/12 14:26:09;;;;;;;12.93;6.80;;;;;;;;;;4955179;28;92961;-64
2022/04/12 14:28:36;;;;;;;13.50;6.35;;;;;;;;;;4954746;28;93192;-64
2022/04/12 14:31:04;;;;;;;17.52;6.50;;;;;;;;;;4955645;28;91768;-64
2022/04/12 14:33:30;;;;;;;23.10;6.78;;;;;;;;;;4955143;28;92577;-64
2022/04/12 14:35:56;;;;;;;15.57;6.40;;;;;;;;;;4955016;28;93475;-64